Time;durP1;ratioP1;P1;durP2;ratioP2;P2;SDS_P1;SDS_P2;PMS_P1;PMS_P2;Temp;Humidity;BMP_temperature;BMP_pressure;BME280_temperature;BME280_humidity;BME280_pressure;Samples;Min_cycle;Max_cycle;Signal;HPM_P1;HPM_P2
2024/03/30 00:02:22;;;;;;;6.97;4.03;;;;;;;;;;5040393;28;20037;-72
2024/03/30 00:04:47;;;;;;;6.43;3.22;;;;;;;;;;5049599;28;20078;-73
2024/03/30 00:07:13;;;;;;;7.07;3.88;;;;;;;;;;5047962;28;20029;-72
2024/03/30 00:09:38;;;;;;;6.38;3.42;;;;;;;;;;5052110;28;20025;-72
2024/03/30 00:12:03;;;;;;;6.32;3.00;;;;;;;;;;5044957;28;20523;-72
2024/03/30 00:14:28;;;;;;;7.78;3.53;;;;;;;;;;5044891;28;20048;-73
2024/03/30 00:16:54;;;;;;;7.22;4.20;;;;;;;;;;5050598;28;20478;-72
2024/03/30 00:19:19;;;;;;;5.82;3.40;;;;;;;;;;5048334;28;20059;-73
2024/03/30 00:21:44;;;;;;;7.00;3.55;;;;;;;;;;5048443;28;20036;-73
2024/03/30 00:24:09;;;;;;;6.57;3.60;;;;;;;;;;5044680;28;20029;-73
2024/03/30 00:26:34;;;;;;;7.40;3.58;;;;;;;;;;5047257;28;20048;-73
2024/03/30 00:28:59;;;;;;;8.32;3.72;;;;;;;;;;5049019;28;20126;-72
2024/03/30 00:31:27;;;;;;;6.55;3.83;;;;;;;;;;5045155;28;20068;-73
2024/03/30 00:33:53;;;;;;;8.25;4.28;;;;;;;;;;5047676;28;20108;-73
2024/03/30 00:36:18;;;;;;;6.50;3.80;;;;;;;;;;5046057;28;20167;-73
2024/03/30 00:38:45;;;;;;;6.60;3.63;;;;;;;;;;5048495;28;20389;-73
2024/03/30 00:41:10;;;;;;;6.15;3.42;;;;;;;;;;5047111;28;20029;-73
2024/03/30 00:43:36;;;;;;;5.75;3.28;;;;;;;;;;5045958;28;20036;-73
2024/03/30 00:46:01;;;;;;;7.05;3.45;;;;;;;;;;5046886;28;20025;-73
2024/03/30 00:48:26;;;;;;;7.30;3.40;;;;;;;;;;5048712;28;20041;-73
2024/03/30 00:50:52;;;;;;;6.30;3.72;;;;;;;;;;5046994;28;20021;-72
2024/03/30 00:53:17;;;;;;;5.88;3.40;;;;;;;;;;5045326;28;20036;-73
2024/03/30 00:55:42;;;;;;;6.00;3.17;;;;;;;;;;5046411;28;20028;-72
2024/03/30 00:58:07;;;;;;;8.65;4.22;;;;;;;;;;5046495;28;20028;-73
2024/03/30 01:00:33;;;;;;;8.52;3.92;;;;;;;;;;5046312;28;20549;-73
2024/03/30 01:02:58;;;;;;;6.35;3.60;;;;;;;;;;5046589;28;20032;-72
2024/03/30 01:05:23;;;;;;;7.55;4.35;;;;;;;;;;5036297;28;20029;-73
2024/03/30 01:07:48;;;;;;;10.75;4.10;;;;;;;;;;5044927;28;20029;-72
2024/03/30 01:10:14;;;;;;;5.32;3.38;;;;;;;;;;5047990;28;20036;-72
2024/03/30 01:12:39;;;;;;;5.95;3.25;;;;;;;;;;5046358;28;20040;-73
2024/03/30 01:15:05;;;;;;;6.95;3.50;;;;;;;;;;5042278;28;20488;-73
2024/03/30 01:17:34;;;;;;;5.97;3.25;;;;;;;;;;5043572;28;20030;-73
2024/03/30 01:19:59;;;;;;;9.45;3.83;;;;;;;;;;5042257;28;20030;-73
2024/03/30 01:22:25;;;;;;;6.10;3.47;;;;;;;;;;5041184;28;20151;-73
2024/03/30 01:24:50;;;;;;;6.97;3.40;;;;;;;;;;5045062;28;20029;-73
2024/03/30 01:27:18;;;;;;;6.78;3.50;;;;;;;;;;5043254;28;20128;-73
2024/03/30 01:29:43;;;;;;;5.80;2.72;;;;;;;;;;5044457;28;20159;-73
2024/03/30 01:32:09;;;;;;;7.10;3.28;;;;;;;;;;5041158;28;20120;-73
2024/03/30 01:34:34;;;;;;;7.55;3.60;;;;;;;;;;5040666;28;20022;-72
2024/03/30 01:37:00;;;;;;;6.57;3.85;;;;;;;;;;5044698;28;20032;-73
2024/03/30 01:39:25;;;;;;;7.43;3.60;;;;;;;;;;5041828;28;20044;-73
2024/03/30 01:41:50;;;;;;;7.47;4.18;;;;;;;;;;5046706;28;20036;-73
2024/03/30 01:44:15;;;;;;;7.05;3.88;;;;;;;;;;5043844;28;20037;-73
2024/03/30 01:46:41;;;;;;;10.00;3.90;;;;;;;;;;5044510;28;20090;-73
2024/03/30 01:49:07;;;;;;;6.05;3.05;;;;;;;;;;5040966;28;20029;-73
2024/03/30 01:51:33;;;;;;;6.80;3.63;;;;;;;;;;5040919;28;20053;-73
2024/03/30 01:53:59;;;;;;;7.53;3.47;;;;;;;;;;5043978;28;20052;-73
2024/03/30 01:56:25;;;;;;;7.72;4.57;;;;;;;;;;5041076;28;20022;-73
2024/03/30 01:58:50;;;;;;;5.72;3.08;;;;;;;;;;5032620;28;20714;-73
2024/03/30 02:01:16;;;;;;;6.45;3.35;;;;;;;;;;5041237;28;20059;-73
2024/03/30 02:03:42;;;;;;;7.50;3.88;;;;;;;;;;5043898;28;20034;-73
2024/03/30 02:06:07;;;;;;;9.30;3.75;;;;;;;;;;5043074;28;20070;-73
2024/03/30 02:08:33;;;;;;;5.47;2.92;;;;;;;;;;5042995;28;20037;-73
2024/03/30 02:11:00;;;;;;;6.97;3.13;;;;;;;;;;5042773;28;20493;-73
2024/03/30 02:13:25;;;;;;;6.55;3.15;;;;;;;;;;5043829;28;20091;-73
2024/03/30 02:15:50;;;;;;;5.38;3.10;;;;;;;;;;5045989;28;20509;-73
2024/03/30 02:18:15;;;;;;;6.78;3.20;;;;;;;;;;5025808;28;20063;-73
2024/03/30 02:20:41;;;;;;;6.13;3.20;;;;;;;;;;5041926;28;20151;-73
2024/03/30 02:23:06;;;;;;;6.25;3.53;;;;;;;;;;5043983;28;20078;-73
2024/03/30 02:25:31;;;;;;;6.90;3.28;;;;;;;;;;5041735;28;20497;-73
2024/03/30 02:27:56;;;;;;;6.43;3.40;;;;;;;;;;5041869;28;20082;-72
2024/03/30 02:30:24;;;;;;;7.03;3.83;;;;;;;;;;5031362;28;20041;-73
2024/03/30 02:32:49;;;;;;;6.18;3.65;;;;;;;;;;5042011;28;20121;-73
2024/03/30 02:35:15;;;;;;;5.95;3.08;;;;;;;;;;5040938;28;20115;-73
2024/03/30 02:37:40;;;;;;;7.28;3.47;;;;;;;;;;5044564;28;20036;-72
2024/03/30 02:40:08;;;;;;;7.30;3.53;;;;;;;;;;5042000;28;20037;-73
2024/03/30 02:42:34;;;;;;;8.02;3.22;;;;;;;;;;5042555;28;20129;-73
2024/03/30 02:44:59;;;;;;;6.05;3.08;;;;;;;;;;5039416;28;20115;-73
2024/03/30 02:47:24;;;;;;;6.55;3.58;;;;;;;;;;5040967;28;20099;-73
2024/03/30 02:49:50;;;;;;;6.55;3.55;;;;;;;;;;5042769;28;20037;-72
2024/03/30 02:52:15;;;;;;;6.70;3.42;;;;;;;;;;5040060;28;20059;-72
2024/03/30 02:54:40;;;;;;;6.35;3.33;;;;;;;;;;5030870;28;20029;-72
2024/03/30 02:57:05;;;;;;;6.47;3.70;;;;;;;;;;5039796;28;20025;-73
2024/03/30 02:59:30;;;;;;;6.13;3.15;;;;;;;;;;5039563;28;20641;-73
2024/03/30 03:01:56;;;;;;;6.95;3.38;;;;;;;;;;5043928;28;20120;-72
2024/03/30 03:04:21;;;;;;;7.45;3.25;;;;;;;;;;5042587;28;20119;-73
2024/03/30 03:06:46;;;;;;;6.30;3.53;;;;;;;;;;5042671;28;20393;-73
2024/03/30 03:09:11;;;;;;;6.07;2.85;;;;;;;;;;5042232;28;20029;-73
2024/03/30 03:11:37;;;;;;;6.28;3.28;;;;;;;;;;5039045;28;20021;-73
2024/03/30 03:14:02;;;;;;;5.95;3.35;;;;;;;;;;5042753;28;20029;-73
2024/03/30 03:16:28;;;;;;;6.68;3.25;;;;;;;;;;5038864;28;20032;-72
2024/03/30 03:18:53;;;;;;;6.47;3.67;;;;;;;;;;5046262;28;20032;-73
2024/03/30 03:21:18;;;;;;;7.60;3.10;;;;;;;;;;5044284;28;20033;-73
2024/03/30 03:23:43;;;;;;;6.05;3.05;;;;;;;;;;5042690;28;20402;-73
2024/03/30 03:26:09;;;;;;;8.20;3.70;;;;;;;;;;5024660;28;20397;-73
2024/03/30 03:28:34;;;;;;;7.20;3.38;;;;;;;;;;5038901;28;20040;-73
2024/03/30 03:30:59;;;;;;;6.93;3.67;;;;;;;;;;5029765;28;20021;-73
2024/03/30 03:33:24;;;;;;;6.75;2.97;;;;;;;;;;5038861;28;20030;-73
2024/03/30 03:35:50;;;;;;;6.75;3.38;;;;;;;;;;5045223;28;20086;-73
2024/03/30 03:38:15;;;;;;;5.88;3.00;;;;;;;;;;5042001;28;20429;-73
2024/03/30 03:40:40;;;;;;;6.50;3.22;;;;;;;;;;5038710;28;20502;-73
2024/03/30 03:43:05;;;;;;;5.50;2.78;;;;;;;;;;5025699;28;20064;-73
2024/03/30 03:45:30;;;;;;;5.30;2.72;;;;;;;;;;5039003;28;20056;-73
2024/03/30 03:47:55;;;;;;;5.30;2.50;;;;;;;;;;5041736;28;20120;-73
2024/03/30 03:50:21;;;;;;;6.60;3.42;;;;;;;;;;5040420;28;20033;-72
2024/03/30 03:52:46;;;;;;;8.25;3.15;;;;;;;;;;5041631;28;20056;-73
2024/03/30 03:55:11;;;;;;;6.13;3.00;;;;;;;;;;5041458;28;20033;-73
2024/03/30 03:57:36;;;;;;;5.68;2.35;;;;;;;;;;5038821;28;20806;-72
2024/03/30 04:00:03;;;;;;;6.53;2.50;;;;;;;;;;5041539;28;20028;-73
2024/03/30 04:02:37;;;;;;;6.32;2.40;;;;;;;;;;5040509;28;20037;-73
2024/03/30 04:05:02;;;;;;;5.60;2.17;;;;;;;;;;5041906;28;20021;-73
2024/03/30 04:07:27;;;;;;;4.50;2.45;;;;;;;;;;5043572;28;20699;-73
2024/03/30 04:09:52;;;;;;;4.97;2.22;;;;;;;;;;5044344;28;20033;-73
2024/03/30 04:12:18;;;;;;;5.68;2.47;;;;;;;;;;5045792;28;20112;-73
2024/03/30 04:14:43;;;;;;;6.63;2.50;;;;;;;;;;5045854;28;20830;-73
2024/03/30 04:17:08;;;;;;;4.57;1.90;;;;;;;;;;5042004;28;20520;-73
2024/03/30 04:19:33;;;;;;;6.53;2.47;;;;;;;;;;5042587;28;20029;-73
2024/03/30 04:22:01;;;;;;;4.72;2.00;;;;;;;;;;5042168;28;20033;-73
2024/03/30 04:24:27;;;;;;;6.00;2.38;;;;;;;;;;5047302;28;20513;-73
2024/03/30 04:26:52;;;;;;;7.35;2.25;;;;;;;;;;5032083;28;20029;-73
2024/03/30 04:29:17;;;;;;;4.85;1.95;;;;;;;;;;5044985;28;20044;-72
2024/03/30 04:31:42;;;;;;;4.43;2.13;;;;;;;;;;5044038;28;20021;-73
2024/03/30 04:34:07;;;;;;;5.03;2.03;;;;;;;;;;5039192;28;20095;-73
2024/03/30 04:36:33;;;;;;;5.65;2.28;;;;;;;;;;5048175;28;20448;-73
2024/03/30 04:38:59;;;;;;;4.95;2.30;;;;;;;;;;5048772;28;20057;-73
2024/03/30 04:41:25;;;;;;;6.65;2.53;;;;;;;;;;5044494;28;20037;-73
2024/03/30 04:43:50;;;;;;;5.45;2.67;;;;;;;;;;5044903;28;20086;-73
2024/03/30 04:46:16;;;;;;;6.40;2.30;;;;;;;;;;5043148;28;20040;-73
2024/03/30 04:48:43;;;;;;;5.78;2.55;;;;;;;;;;5041856;28;20107;-72
2024/03/30 04:51:09;;;;;;;7.80;2.42;;;;;;;;;;5052141;28;20037;-73
2024/03/30 04:53:34;;;;;;;6.18;2.55;;;;;;;;;;5050140;28;20098;-73
2024/03/30 04:56:01;;;;;;;6.93;2.60;;;;;;;;;;5048979;28;20071;-73
2024/03/30 04:58:27;;;;;;;6.88;2.83;;;;;;;;;;5046244;28;20517;-73
2024/03/30 05:00:53;;;;;;;5.57;2.35;;;;;;;;;;5045824;28;20047;-73
2024/03/30 05:03:18;;;;;;;4.63;2.17;;;;;;;;;;5035049;28;20476;-72
2024/03/30 05:05:43;;;;;;;6.32;2.17;;;;;;;;;;5050399;28;20177;-72
2024/03/30 05:08:09;;;;;;;6.53;2.33;;;;;;;;;;5050576;28;20036;-73
2024/03/30 05:10:35;;;;;;;8.90;2.88;;;;;;;;;;5048234;28;20020;-73
2024/03/30 05:13:00;;;;;;;5.63;2.25;;;;;;;;;;5045773;28;20067;-72
2024/03/30 05:15:25;;;;;;;6.47;2.20;;;;;;;;;;5044114;28;20037;-73
2024/03/30 05:17:51;;;;;;;7.20;2.30;;;;;;;;;;5052655;28;20037;-73
2024/03/30 05:23:00;;;;;;;5.63;2.40;;;;;;;;;;5046934;28;20401;-73
2024/03/30 05:25:25;;;;;;;7.63;2.42;;;;;;;;;;5046000;28;20044;-73
2024/03/30 05:27:50;;;;;;;8.63;3.05;;;;;;;;;;5046251;28;20405;-73
2024/03/30 05:30:18;;;;;;;10.25;3.03;;;;;;;;;;5045499;28;20033;-73
2024/03/30 05:32:43;;;;;;;7.28;2.40;;;;;;;;;;5051497;28;20032;-73
2024/03/30 05:35:08;;;;;;;7.72;2.60;;;;;;;;;;5049507;28;20025;-73
2024/03/30 05:37:34;;;;;;;8.23;2.10;;;;;;;;;;5050085;28;20028;-73
2024/03/30 05:39:59;;;;;;;7.72;2.80;;;;;;;;;;5049117;28;20385;-73
2024/03/30 05:42:24;;;;;;;8.50;2.47;;;;;;;;;;5043453;28;20536;-73
2024/03/30 05:44:50;;;;;;;6.07;1.98;;;;;;;;;;5046517;28;20031;-73
2024/03/30 05:47:16;;;;;;;6.47;3.08;;;;;;;;;;5050266;28;20041;-73
2024/03/30 05:49:41;;;;;;;8.27;3.05;;;;;;;;;;5051143;28;20032;-73
2024/03/30 05:52:06;;;;;;;9.57;2.45;;;;;;;;;;5046889;28;20025;-73
2024/03/30 05:54:32;;;;;;;9.10;2.85;;;;;;;;;;5045656;28;20087;-73
2024/03/30 05:56:57;;;;;;;7.40;2.60;;;;;;;;;;5043932;28;20029;-73
2024/03/30 05:59:22;;;;;;;8.77;2.88;;;;;;;;;;5034129;28;20033;-73
2024/03/30 06:01:47;;;;;;;9.50;3.00;;;;;;;;;;5047740;28;20090;-73
2024/03/30 06:04:13;;;;;;;9.27;3.05;;;;;;;;;;5047387;28;20029;-72
2024/03/30 06:06:38;;;;;;;9.90;2.72;;;;;;;;;;5049398;28;20127;-73
2024/03/30 06:09:04;;;;;;;10.27;2.65;;;;;;;;;;5048972;28;20117;-73
2024/03/30 06:11:29;;;;;;;8.50;2.88;;;;;;;;;;5032940;28;20029;-73
2024/03/30 06:13:54;;;;;;;10.20;3.15;;;;;;;;;;5044717;28;20662;-73
2024/03/30 06:16:21;;;;;;;10.75;3.10;;;;;;;;;;5048761;28;20053;-73
2024/03/30 06:18:46;;;;;;;10.38;2.78;;;;;;;;;;5034202;28;20043;-73
2024/03/30 06:21:11;;;;;;;12.15;3.40;;;;;;;;;;5046952;28;20032;-73
2024/03/30 06:23:36;;;;;;;11.27;3.42;;;;;;;;;;5046765;28;20033;-72
2024/03/30 06:26:02;;;;;;;10.25;3.17;;;;;;;;;;5041743;28;20159;-73
2024/03/30 06:28:28;;;;;;;11.35;3.63;;;;;;;;;;5049122;28;20053;-73
2024/03/30 06:30:54;;;;;;;11.82;2.63;;;;;;;;;;5047053;28;20393;-73
2024/03/30 06:33:20;;;;;;;12.60;2.65;;;;;;;;;;5046782;28;20092;-73
2024/03/30 06:35:52;;;;;;;14.60;3.30;;;;;;;;;;5046144;28;20060;-73
2024/03/30 06:38:17;;;;;;;16.90;4.32;;;;;;;;;;5044741;28;20504;-73
2024/03/30 06:43:41;;;;;;;15.23;4.57;;;;;;;;;;5048770;28;20048;-73
2024/03/30 06:46:07;;;;;;;12.80;3.75;;;;;;;;;;5047346;28;20094;-73
2024/03/30 06:48:32;;;;;;;19.52;3.78;;;;;;;;;;5045576;28;20486;-73
2024/03/30 06:50:57;;;;;;;17.95;4.45;;;;;;;;;;5047015;28;20036;-73
2024/03/30 06:53:23;;;;;;;27.83;5.63;;;;;;;;;;5041137;28;20030;-73
2024/03/30 06:55:48;;;;;;;16.77;3.55;;;;;;;;;;5046618;28;20025;-73
2024/03/30 06:58:14;;;;;;;15.57;4.32;;;;;;;;;;5049081;28;20052;-72
2024/03/30 07:00:39;;;;;;;25.30;4.93;;;;;;;;;;5046545;28;20043;-73
2024/03/30 07:03:04;;;;;;;25.17;5.57;;;;;;;;;;5044713;28;20116;-73
2024/03/30 07:05:30;;;;;;;20.58;4.35;;;;;;;;;;5043025;28;20072;-73
2024/03/30 07:07:55;;;;;;;18.67;4.28;;;;;;;;;;5045599;28;20025;-73
2024/03/30 07:10:20;;;;;;;22.42;4.32;;;;;;;;;;5047552;28;20090;-73
2024/03/30 07:12:47;;;;;;;29.42;4.68;;;;;;;;;;5048362;28;20545;-73
2024/03/30 07:15:12;;;;;;;23.65;4.90;;;;;;;;;;5045133;28;20037;-73
2024/03/30 07:17:38;;;;;;;27.90;5.15;;;;;;;;;;5044995;28;20021;-73
2024/03/30 07:20:03;;;;;;;18.30;4.72;;;;;;;;;;5045464;28;20060;-73
2024/03/30 07:22:28;;;;;;;22.95;4.53;;;;;;;;;;5044778;28;20237;-73
2024/03/30 07:24:53;;;;;;;25.42;4.97;;;;;;;;;;5048720;28;20033;-73
2024/03/30 07:27:19;;;;;;;20.87;4.30;;;;;;;;;;5046074;28;20025;-73
2024/03/30 07:29:48;;;;;;;33.55;5.78;;;;;;;;;;5048469;28;20298;-73
2024/03/30 07:32:13;;;;;;;32.75;6.30;;;;;;;;;;5042425;28;20390;-73
2024/03/30 07:34:42;;;;;;;29.08;5.00;;;;;;;;;;5042737;28;20021;-73
2024/03/30 07:37:08;;;;;;;22.55;5.70;;;;;;;;;;5024823;28;20029;-73
2024/03/30 07:39:33;;;;;;;21.70;4.20;;;;;;;;;;5046096;28;20037;-73
2024/03/30 07:41:58;;;;;;;28.48;5.95;;;;;;;;;;5047191;28;20689;-73
2024/03/30 07:44:27;;;;;;;28.55;4.93;;;;;;;;;;5043215;28;20099;-73
2024/03/30 07:46:53;;;;;;;28.27;6.10;;;;;;;;;;5043266;28;20033;-73
2024/03/30 07:49:18;;;;;;;30.80;5.18;;;;;;;;;;5042168;28;20041;-73
2024/03/30 07:51:43;;;;;;;29.95;7.05;;;;;;;;;;5049329;28;20033;-73
2024/03/30 07:54:08;;;;;;;24.20;4.80;;;;;;;;;;5047548;28;20420;-73
2024/03/30 07:56:33;;;;;;;27.83;5.10;;;;;;;;;;5046914;28;20079;-74
2024/03/30 07:59:01;;;;;;;22.73;6.20;;;;;;;;;;5045182;28;20029;-73
2024/03/30 08:01:27;;;;;;;28.08;6.05;;;;;;;;;;5043461;28;20272;-73
2024/03/30 08:03:52;;;;;;;22.38;4.68;;;;;;;;;;5042305;28;20057;-73
2024/03/30 08:06:17;;;;;;;26.92;4.72;;;;;;;;;;5047949;28;20060;-73
2024/03/30 08:08:43;;;;;;;28.05;5.15;;;;;;;;;;5048434;28;20037;-73
2024/03/30 08:11:08;;;;;;;27.23;5.45;;;;;;;;;;5047276;28;20041;-73
2024/03/30 08:13:33;;;;;;;29.98;5.20;;;;;;;;;;5043338;28;20030;-73
2024/03/30 08:15:58;;;;;;;21.08;4.65;;;;;;;;;;5041932;28;20033;-73
2024/03/30 08:18:24;;;;;;;26.77;6.07;;;;;;;;;;5043211;28;20033;-73
2024/03/30 08:20:49;;;;;;;37.45;6.82;;;;;;;;;;5049001;28;20037;-73
2024/03/30 08:23:14;;;;;;;24.67;5.90;;;;;;;;;;5045209;28;20033;-73
2024/03/30 08:25:39;;;;;;;28.90;5.50;;;;;;;;;;5051185;28;20120;-73
2024/03/30 08:28:05;;;;;;;27.63;5.63;;;;;;;;;;5046611;28;20651;-73
2024/03/30 08:30:30;;;;;;;29.25;5.80;;;;;;;;;;5047253;28;20307;-73
2024/03/30 08:32:55;;;;;;;25.85;6.00;;;;;;;;;;5049277;28;20142;-73
2024/03/30 08:35:21;;;;;;;23.83;5.18;;;;;;;;;;5050631;28;20044;-73
2024/03/30 08:37:46;;;;;;;33.03;6.97;;;;;;;;;;5050057;28;20032;-73
2024/03/30 08:40:11;;;;;;;22.40;5.32;;;;;;;;;;5051396;28;20486;-73
2024/03/30 08:42:36;;;;;;;31.30;5.25;;;;;;;;;;5046593;28;20017;-73
2024/03/30 08:45:02;;;;;;;30.83;5.90;;;;;;;;;;5044153;28;20029;-73
2024/03/30 08:47:27;;;;;;;30.27;6.28;;;;;;;;;;5050536;28;20033;-73
2024/03/30 08:49:52;;;;;;;27.40;6.07;;;;;;;;;;5049943;28;20058;-73
2024/03/30 08:52:18;;;;;;;32.88;5.97;;;;;;;;;;5047726;28;20430;-73
2024/03/30 08:54:43;;;;;;;44.03;7.70;;;;;;;;;;5048368;28;20028;-73
2024/03/30 08:57:08;;;;;;;36.67;7.50;;;;;;;;;;5044670;28;20025;-73
2024/03/30 08:59:33;;;;;;;39.30;7.80;;;;;;;;;;5046152;28;20747;-74
2024/03/30 09:01:59;;;;;;;44.38;6.95;;;;;;;;;;5051972;28;20089;-73
2024/03/30 09:04:24;;;;;;;38.40;6.00;;;;;;;;;;5048900;28;20037;-73
2024/03/30 09:06:49;;;;;;;30.47;5.40;;;;;;;;;;5049141;28;20306;-73
2024/03/30 09:09:14;;;;;;;28.33;7.18;;;;;;;;;;5049094;28;20383;-73
2024/03/30 09:11:40;;;;;;;28.17;7.18;;;;;;;;;;5049375;28;20112;-73
2024/03/30 09:14:05;;;;;;;29.42;6.28;;;;;;;;;;5045197;28;20025;-73
2024/03/30 09:16:30;;;;;;;34.55;7.35;;;;;;;;;;5049706;28;20026;-73
2024/03/30 09:18:55;;;;;;;37.80;6.97;;;;;;;;;;5049988;28;20021;-73
2024/03/30 09:21:20;;;;;;;34.93;6.83;;;;;;;;;;5047815;28;20026;-74
2024/03/30 09:23:46;;;;;;;45.10;7.47;;;;;;;;;;5049724;28;20263;-73
2024/03/30 09:26:11;;;;;;;45.23;8.00;;;;;;;;;;5042682;28;20826;-73
2024/03/30 09:28:36;;;;;;;40.80;9.13;;;;;;;;;;5047388;28;20309;-73
2024/03/30 09:31:02;;;;;;;42.77;8.63;;;;;;;;;;5051556;28;20287;-73
2024/03/30 09:33:27;;;;;;;46.35;8.70;;;;;;;;;;5047403;28;20279;-73
2024/03/30 09:35:54;;;;;;;37.67;8.27;;;;;;;;;;5046869;28;20082;-73
2024/03/30 09:38:20;;;;;;;39.22;8.93;;;;;;;;;;5046200;28;20112;-73
2024/03/30 09:40:49;;;;;;;54.15;10.48;;;;;;;;;;5046336;28;20112;-74
2024/03/30 09:43:15;;;;;;;45.13;8.98;;;;;;;;;;5047858;28;20493;-73
2024/03/30 09:45:40;;;;;;;54.33;10.57;;;;;;;;;;5049731;28;20029;-73
2024/03/30 09:48:07;;;;;;;55.42;11.05;;;;;;;;;;5048034;28;20037;-73
2024/03/30 09:50:32;;;;;;;46.05;9.32;;;;;;;;;;5045442;28;20037;-73
2024/03/30 09:52:57;;;;;;;48.38;9.68;;;;;;;;;;5044801;28;20033;-73
2024/03/30 09:55:26;;;;;;;49.08;10.00;;;;;;;;;;5045141;28;20040;-73
2024/03/30 09:57:52;;;;;;;42.13;9.07;;;;;;;;;;5050684;28;20029;-74
2024/03/30 10:00:18;;;;;;;53.88;9.48;;;;;;;;;;5049240;28;20445;-73
2024/03/30 10:02:44;;;;;;;39.45;8.52;;;;;;;;;;5045601;28;20029;-73
2024/03/30 10:05:12;;;;;;;67.97;10.52;;;;;;;;;;5047982;28;20521;-73
2024/03/30 10:07:38;;;;;;;56.28;10.45;;;;;;;;;;5033988;28;20045;-73
2024/03/30 10:10:07;;;;;;;63.22;10.93;;;;;;;;;;5048199;28;20718;-74
2024/03/30 10:12:37;;;;;;;53.90;9.75;;;;;;;;;;5049254;28;20029;-73
2024/03/30 10:15:05;;;;;;;52.17;9.50;;;;;;;;;;5048778;28;20032;-74
2024/03/30 10:17:30;;;;;;;45.78;8.75;;;;;;;;;;5046472;28;20112;-73
2024/03/30 10:19:56;;;;;;;46.70;10.32;;;;;;;;;;5046313;28;20123;-74
2024/03/30 10:22:22;;;;;;;51.80;10.38;;;;;;;;;;5043187;28;20060;-73
2024/03/30 10:24:47;;;;;;;42.28;8.55;;;;;;;;;;5050627;28;20079;-73
2024/03/30 10:27:12;;;;;;;46.28;8.23;;;;;;;;;;5048792;28;20021;-74
2024/03/30 10:29:38;;;;;;;45.88;9.20;;;;;;;;;;5047775;28;20041;-73
2024/03/30 10:32:06;;;;;;;48.65;9.20;;;;;;;;;;5045840;28;20021;-74
2024/03/30 10:34:32;;;;;;;58.13;10.50;;;;;;;;;;5042888;28;20883;-73
2024/03/30 10:36:57;;;;;;;47.75;9.45;;;;;;;;;;5047500;28;20115;-74
2024/03/30 10:39:23;;;;;;;58.35;9.65;;;;;;;;;;5049965;28;20102;-73
2024/03/30 10:41:51;;;;;;;48.80;8.90;;;;;;;;;;5048721;28;20488;-74
2024/03/30 10:44:21;;;;;;;43.92;9.65;;;;;;;;;;5045177;28;20271;-74
2024/03/30 10:46:47;;;;;;;56.80;10.77;;;;;;;;;;5044369;28;20028;-73
2024/03/30 10:49:13;;;;;;;51.40;9.50;;;;;;;;;;5041612;28;20044;-74
2024/03/30 10:51:39;;;;;;;44.55;9.73;;;;;;;;;;5044671;28;20041;-73
2024/03/30 10:54:05;;;;;;;46.90;9.80;;;;;;;;;;5048670;28;20025;-73
2024/03/30 10:56:30;;;;;;;46.95;9.05;;;;;;;;;;5047268;28;20033;-74
2024/03/30 10:59:00;;;;;;;60.57;11.37;;;;;;;;;;5045312;28;20032;-73
2024/03/30 11:01:26;;;;;;;43.65;9.40;;;;;;;;;;5042509;28;20772;-74
2024/03/30 11:03:52;;;;;;;43.25;8.85;;;;;;;;;;5043116;28;20033;-73
2024/03/30 11:06:17;;;;;;;43.33;9.70;;;;;;;;;;5047008;28;20020;-74
2024/03/30 11:08:43;;;;;;;53.80;10.13;;;;;;;;;;5048498;28;20036;-74
2024/03/30 11:11:08;;;;;;;43.22;8.70;;;;;;;;;;5047001;28;20296;-74
2024/03/30 11:13:33;;;;;;;46.30;10.48;;;;;;;;;;5044031;28;20677;-73
2024/03/30 11:16:00;;;;;;;43.10;9.13;;;;;;;;;;5043637;28;20021;-73
2024/03/30 11:18:37;;;;;;;52.90;10.13;;;;;;;;;;5040082;28;20276;-74
2024/03/30 11:21:03;;;;;;;51.50;10.50;;;;;;;;;;5049476;28;20048;-74
2024/03/30 11:23:34;;;;;;;45.63;9.52;;;;;;;;;;5046232;28;20060;-74
2024/03/30 11:26:09;;;;;;;50.80;10.55;;;;;;;;;;5047108;28;20044;-74
2024/03/30 11:28:42;;;;;;;46.22;9.93;;;;;;;;;;5043329;28;20033;-74
2024/03/30 11:31:10;;;;;;;47.88;9.82;;;;;;;;;;5041171;28;20082;-73
2024/03/30 11:33:35;;;;;;;44.53;9.13;;;;;;;;;;5044730;28;20501;-74
2024/03/30 11:36:03;;;;;;;52.07;10.60;;;;;;;;;;5048615;28;20033;-74
2024/03/30 11:38:31;;;;;;;46.70;9.20;;;;;;;;;;5047356;28;20032;-74
2024/03/30 11:40:59;;;;;;;53.90;11.05;;;;;;;;;;5044027;28;20029;-73
2024/03/30 11:43:43;;;;;;;46.63;12.40;;;;;;;;;;5040821;28;20097;-74
2024/03/30 11:46:09;;;;;;;53.35;9.18;;;;;;;;;;5040149;28;20044;-73
2024/03/30 11:48:35;;;;;;;52.65;11.13;;;;;;;;;;5047650;28;20038;-73
2024/03/30 11:51:00;;;;;;;52.45;10.32;;;;;;;;;;5045256;28;20556;-74
2024/03/30 11:53:32;;;;;;;50.15;10.70;;;;;;;;;;5043347;28;20045;-73
2024/03/30 11:55:58;;;;;;;51.42;11.02;;;;;;;;;;5043362;28;20028;-74
2024/03/30 11:58:24;;;;;;;50.38;10.65;;;;;;;;;;5039604;28;20037;-74
2024/03/30 12:00:58;;;;;;;38.10;9.35;;;;;;;;;;5045865;28;20033;-74
2024/03/30 12:03:24;;;;;;;56.50;11.25;;;;;;;;;;5047460;28;20037;-74
2024/03/30 12:05:52;;;;;;;48.67;11.30;;;;;;;;;;5047078;28;20082;-74
2024/03/30 12:08:17;;;;;;;46.42;9.40;;;;;;;;;;5045921;28;20035;-73
2024/03/30 12:10:50;;;;;;;46.25;9.15;;;;;;;;;;5043000;28;20033;-73
2024/03/30 12:13:19;;;;;;;63.80;10.30;;;;;;;;;;5044548;28;20090;-74
2024/03/30 12:15:44;;;;;;;51.80;11.30;;;;;;;;;;5049166;28;20021;-74
2024/03/30 12:18:09;;;;;;;47.70;9.02;;;;;;;;;;5048030;28;20029;-74
2024/03/30 12:20:35;;;;;;;52.10;10.30;;;;;;;;;;5043093;28;20494;-74
2024/03/30 12:23:00;;;;;;;57.13;10.90;;;;;;;;;;5047314;28;20064;-74
2024/03/30 12:25:26;;;;;;;69.47;13.47;;;;;;;;;;5042293;28;20032;-74
2024/03/30 12:27:51;;;;;;;64.38;10.80;;;;;;;;;;5025428;28;20267;-74
2024/03/30 12:30:16;;;;;;;51.10;11.27;;;;;;;;;;5046004;28;20036;-74
2024/03/30 12:32:41;;;;;;;56.60;10.68;;;;;;;;;;5046527;28;20279;-74
2024/03/30 12:35:07;;;;;;;58.03;11.13;;;;;;;;;;5045564;28;20043;-74
2024/03/30 12:37:32;;;;;;;50.27;10.90;;;;;;;;;;5045197;28;20029;-74
2024/03/30 12:39:57;;;;;;;54.47;10.18;;;;;;;;;;5028327;28;20832;-74
2024/03/30 12:42:24;;;;;;;49.57;10.93;;;;;;;;;;5045400;28;20036;-74
2024/03/30 12:44:53;;;;;;;50.50;10.30;;;;;;;;;;5048147;28;20259;-74
2024/03/30 12:47:18;;;;;;;48.00;10.35;;;;;;;;;;5045658;28;20086;-74
2024/03/30 12:49:44;;;;;;;70.53;12.87;;;;;;;;;;5027600;28;20056;-74
2024/03/30 12:52:09;;;;;;;64.80;11.65;;;;;;;;;;5042443;28;20299;-74
2024/03/30 12:54:34;;;;;;;44.13;11.07;;;;;;;;;;5029906;28;20057;-74
2024/03/30 12:57:00;;;;;;;58.10;12.13;;;;;;;;;;5045235;28;20268;-74
2024/03/30 12:59:26;;;;;;;57.55;10.23;;;;;;;;;;5047409;28;20352;-74
2024/03/30 13:01:51;;;;;;;64.05;11.60;;;;;;;;;;5044747;28;20495;-74
2024/03/30 13:04:17;;;;;;;61.15;12.25;;;;;;;;;;5043027;28;20025;-74
2024/03/30 13:06:45;;;;;;;65.22;12.30;;;;;;;;;;5042549;28;20103;-74
2024/03/30 13:09:20;;;;;;;47.50;10.77;;;;;;;;;;5041648;28;20025;-74
2024/03/30 13:11:46;;;;;;;64.60;13.13;;;;;;;;;;5048637;28;20091;-74
2024/03/30 13:14:11;;;;;;;46.92;9.10;;;;;;;;;;5050642;28;20024;-74
2024/03/30 13:16:37;;;;;;;61.70;11.25;;;;;;;;;;5047654;28;20466;-74
2024/03/30 13:19:02;;;;;;;51.23;10.93;;;;;;;;;;5047653;28;20025;-74
2024/03/30 13:21:27;;;;;;;69.20;13.05;;;;;;;;;;5046604;28;20040;-74
2024/03/30 13:23:52;;;;;;;59.50;12.50;;;;;;;;;;5045126;28;20485;-74
2024/03/30 13:26:17;;;;;;;59.30;11.17;;;;;;;;;;5051660;28;20112;-74
2024/03/30 13:28:43;;;;;;;57.27;12.90;;;;;;;;;;5049430;28;20302;-74
2024/03/30 13:31:08;;;;;;;57.15;12.40;;;;;;;;;;5047701;28;20115;-74
2024/03/30 13:33:33;;;;;;;53.30;10.53;;;;;;;;;;5045147;28;20095;-74
2024/03/30 13:35:59;;;;;;;48.70;10.40;;;;;;;;;;5044919;28;20283;-74
2024/03/30 13:38:24;;;;;;;58.47;12.65;;;;;;;;;;5048834;28;20621;-74
2024/03/30 13:40:49;;;;;;;53.03;12.20;;;;;;;;;;5049157;28;20467;-74
2024/03/30 13:43:15;;;;;;;54.88;11.50;;;;;;;;;;5050020;28;20040;-74
2024/03/30 13:45:40;;;;;;;50.57;10.33;;;;;;;;;;5046835;28;20087;-74
2024/03/30 13:48:06;;;;;;;65.67;10.90;;;;;;;;;;5045701;28;20279;-74
2024/03/30 13:50:34;;;;;;;51.25;11.68;;;;;;;;;;5046525;28;20321;-74
2024/03/30 13:52:59;;;;;;;52.25;11.27;;;;;;;;;;5047820;28;20036;-74
2024/03/30 13:55:25;;;;;;;60.53;12.07;;;;;;;;;;5049009;28;20448;-74
2024/03/30 13:57:52;;;;;;;49.88;11.02;;;;;;;;;;5050833;28;20032;-74
2024/03/30 14:00:18;;;;;;;50.30;10.55;;;;;;;;;;5029674;28;20036;-74
2024/03/30 14:02:43;;;;;;;53.95;12.00;;;;;;;;;;5045587;28;20021;-74
2024/03/30 14:05:08;;;;;;;65.30;13.33;;;;;;;;;;5045489;28;20397;-74
2024/03/30 14:07:33;;;;;;;67.72;12.32;;;;;;;;;;5049041;28;20760;-74
2024/03/30 14:09:59;;;;;;;53.33;11.30;;;;;;;;;;5049151;28;20033;-74
2024/03/30 14:12:24;;;;;;;63.35;11.68;;;;;;;;;;5047978;28;20280;-74
2024/03/30 14:14:49;;;;;;;48.50;12.23;;;;;;;;;;5051320;28;20032;-74
2024/03/30 14:17:15;;;;;;;54.03;11.90;;;;;;;;;;5043068;28;20114;-74
2024/03/30 14:19:41;;;;;;;50.45;10.05;;;;;;;;;;5044555;28;20299;-74
2024/03/30 14:22:07;;;;;;;57.70;12.02;;;;;;;;;;5032662;28;20056;-74
2024/03/30 14:24:32;;;;;;;41.22;10.48;;;;;;;;;;5048739;28;20065;-74
2024/03/30 14:26:58;;;;;;;56.93;12.40;;;;;;;;;;5047600;28;20111;-74
2024/03/30 14:29:24;;;;;;;47.30;11.23;;;;;;;;;;5043314;28;20038;-74
2024/03/30 14:31:49;;;;;;;68.77;13.20;;;;;;;;;;5048032;28;20052;-75